createdAt,value
2022-10-12T00:02:38.081Z,20.30
2022-10-12T00:05:43.980Z,20.40
2022-10-12T00:08:51.625Z,19.80
2022-10-12T00:11:57.490Z,19.10
2022-10-12T00:15:03.740Z,19.30
2022-10-12T00:18:10.177Z,20.30
2022-10-12T00:21:18.252Z,21.10
2022-10-12T00:24:24.160Z,21.20
2022-10-12T00:27:30.299Z,20.80
2022-10-12T00:30:41.020Z,20.60
2022-10-12T00:33:48.204Z,20.00
2022-10-12T00:36:56.402Z,20.80
2022-10-12T00:40:02.553Z,21.30
2022-10-12T00:43:29.649Z,21.20
2022-10-12T00:46:42.662Z,20.40
2022-10-12T00:49:51.684Z,20.30
2022-10-12T00:53:03.296Z,19.80
2022-10-12T00:56:14.462Z,21.80
2022-10-12T00:59:23.787Z,21.70
2022-10-12T01:02:33.474Z,22.30
2022-10-12T01:05:42.755Z,22.40
2022-10-12T01:08:49.880Z,21.80
2022-10-12T01:11:57.857Z,23.30
2022-10-12T01:15:04.334Z,22.70
2022-10-12T01:18:16.063Z,23.60
2022-10-12T01:21:23.895Z,22.30
2022-10-12T01:24:52.026Z,21.80
2022-10-12T01:28:03.432Z,22.00
2022-10-12T01:31:15.818Z,22.90
2022-10-12T01:34:29.697Z,21.90
2022-10-12T01:37:47.910Z,22.00
2022-10-12T01:41:03.348Z,22.60
2022-10-12T01:44:09.498Z,21.80
2022-10-12T01:47:16.993Z,20.30
2022-10-12T01:50:28.241Z,19.80
2022-10-12T01:53:41.807Z,20.10
2022-10-12T01:56:55.539Z,20.40
2022-10-12T02:00:08.280Z,21.30
2022-10-12T02:03:22.184Z,20.50
2022-10-12T02:06:33.912Z,20.00
2022-10-12T02:09:41.346Z,19.90
2022-10-12T02:12:50.937Z,19.00
2022-10-12T02:16:00.247Z,18.50
2022-10-12T02:19:10.913Z,18.10
2022-10-12T02:22:18.992Z,17.70
2022-10-12T02:25:27.744Z,17.20
2022-10-12T02:28:37.514Z,18.20
2022-10-12T02:31:53.730Z,18.00
2022-10-12T02:38:15.861Z,17.20
2022-10-12T02:41:28.062Z,18.60
2022-10-12T02:44:38.519Z,17.90
2022-10-12T02:47:47.261Z,17.20
2022-10-12T02:50:57.118Z,16.90
2022-10-12T02:54:04.389Z,17.60
2022-10-12T02:57:11.162Z,16.00
2022-10-12T03:00:19.517Z,16.80
2022-10-12T03:03:25.702Z,16.30
2022-10-12T03:06:31.746Z,14.90
2022-10-12T03:09:37.816Z,14.70
2022-10-12T03:12:49.106Z,14.40
2022-10-12T03:16:02.071Z,13.90
2022-10-12T03:19:08.275Z,13.20
2022-10-12T03:22:14.316Z,12.80
2022-10-12T03:25:20.456Z,13.80
2022-10-12T03:28:26.666Z,13.00
2022-10-12T03:34:37.381Z,12.50
2022-10-12T03:37:43.535Z,12.60
2022-10-12T03:40:49.980Z,12.80
2022-10-12T03:43:56.015Z,12.30
2022-10-12T03:47:02.071Z,12.80
2022-10-12T03:50:09.554Z,12.90
2022-10-12T03:53:15.724Z,12.70
2022-10-12T03:56:21.759Z,12.10
2022-10-12T03:59:28.636Z,12.40
2022-10-12T04:02:34.704Z,12.90
2022-10-12T04:05:41.055Z,12.50
2022-10-12T04:11:57.088Z,11.70
2022-10-12T04:15:03.448Z,11.40
2022-10-12T04:21:16.479Z,12.20
2022-10-12T04:24:22.607Z,11.50
2022-10-12T04:27:28.800Z,11.40
2022-10-12T04:30:34.891Z,11.20
2022-10-12T04:33:41.161Z,11.10
2022-10-12T04:36:47.275Z,10.30
2022-10-12T04:39:53.380Z,10.30
2022-10-12T04:42:59.435Z,10.20
2022-10-12T04:46:05.645Z,9.80
2022-10-12T04:49:11.780Z,9.80
2022-10-12T04:52:17.750Z,9.30
2022-10-12T04:55:24.062Z,9.40
2022-10-12T05:01:35.165Z,9.60
2022-10-12T05:04:41.365Z,9.90
2022-10-12T05:07:47.656Z,10.10
2022-10-12T05:13:58.493Z,10.10
2022-10-12T05:17:04.674Z,11.00
2022-10-12T05:20:13.498Z,10.30
2022-10-12T05:23:19.571Z,11.30
2022-10-12T05:26:25.914Z,10.20
2022-10-12T05:32:36.833Z,10.30
2022-10-12T05:35:47.481Z,10.30
2022-10-12T05:38:55.067Z,9.90
2022-10-12T05:42:01.179Z,9.60
2022-10-12T05:45:08.947Z,9.20
2022-10-12T05:48:15.311Z,8.90
2022-10-12T05:54:26.153Z,9.50
2022-10-12T05:57:32.420Z,9.70
2022-10-12T06:00:39.051Z,10.10
2022-10-12T06:03:45.202Z,10.30
2022-10-12T06:06:51.365Z,11.00
2022-10-12T06:09:57.461Z,9.20
2022-10-12T06:13:03.850Z,9.30
2022-10-12T06:16:10.600Z,9.70
2022-10-12T06:19:16.780Z,10.90
2022-10-12T06:22:22.823Z,11.10
2022-10-12T06:25:29.224Z,10.30
2022-10-12T06:28:35.573Z,10.30
2022-10-12T06:34:46.959Z,13.40
2022-10-12T06:37:54.016Z,12.00
2022-10-12T06:41:00.720Z,11.70
2022-10-12T06:44:07.136Z,10.90
2022-10-12T06:47:13.315Z,10.90
2022-10-12T06:50:19.642Z,10.40
2022-10-12T06:56:32.263Z,9.90
2022-10-12T06:59:38.384Z,9.90
2022-10-12T07:02:44.928Z,10.30
2022-10-12T07:05:51.020Z,9.80
2022-10-12T07:08:58.050Z,9.60
2022-10-12T07:12:04.193Z,9.60
2022-10-12T07:15:11.928Z,9.90
2022-10-12T07:18:17.964Z,10.70
2022-10-12T07:21:24.062Z,9.70
2022-10-12T07:24:36.529Z,10.50
2022-10-12T07:27:42.559Z,10.60
2022-10-12T07:30:48.870Z,10.70
2022-10-12T07:37:00.130Z,11.40
2022-10-12T07:40:07.495Z,13.80
2022-10-12T07:43:16.063Z,11.60
2022-10-12T07:46:22.691Z,11.40
2022-10-12T07:49:28.953Z,11.30
2022-10-12T07:52:35.808Z,10.80
2022-10-12T07:55:42.052Z,11.70
2022-10-12T07:58:51.357Z,12.00
2022-10-12T08:01:57.570Z,12.30
2022-10-12T08:05:03.764Z,13.00
2022-10-12T08:08:10.013Z,15.20
2022-10-12T08:14:21.011Z,14.50
2022-10-12T08:17:27.538Z,16.50
2022-10-12T08:20:33.783Z,15.60
2022-10-12T08:23:40.239Z,15.60
2022-10-12T08:26:46.318Z,16.10
2022-10-12T08:29:52.450Z,16.30
2022-10-12T08:32:58.597Z,24.20
2022-10-12T08:36:06.691Z,19.50
2022-10-12T08:39:12.840Z,15.10
2022-10-12T08:42:35.367Z,18.60
2022-10-12T08:45:49.192Z,14.90
2022-10-12T08:49:02.977Z,14.40
2022-10-12T08:52:22.818Z,16.10
2022-10-12T08:55:38.094Z,12.30
2022-10-12T08:58:45.636Z,12.70
2022-10-12T09:02:04.228Z,13.20
2022-10-12T09:05:16.275Z,11.20
2022-10-12T09:08:33.591Z,10.10
2022-10-12T09:11:53.167Z,7.10
2022-10-12T09:15:03.668Z,6.90
2022-10-12T09:18:20.330Z,6.10
2022-10-12T09:21:28.540Z,6.20
2022-10-12T09:24:39.398Z,5.90
2022-10-12T09:27:48.286Z,5.10
2022-10-12T09:31:17.984Z,4.80
2022-10-12T09:34:24.843Z,4.60
2022-10-12T09:37:33.704Z,5.60
2022-10-12T09:40:40.478Z,5.60
2022-10-12T09:43:46.905Z,5.60
2022-10-12T09:46:57.516Z,5.20
2022-10-12T09:50:05.750Z,6.40
2022-10-12T09:53:28.857Z,5.40
2022-10-12T09:56:41.800Z,5.00
2022-10-12T09:59:48.486Z,4.80
2022-10-12T10:02:55.712Z,7.30
2022-10-12T10:06:07.504Z,6.50
2022-10-12T10:09:33.587Z,6.80
2022-10-12T10:12:44.231Z,6.60
2022-10-12T10:15:52.086Z,6.90
2022-10-12T10:19:03.148Z,8.90
2022-10-12T10:22:09.379Z,9.70
2022-10-12T10:28:31.841Z,9.80
2022-10-12T10:31:38.078Z,7.70
2022-10-12T10:40:58.685Z,7.60
2022-10-12T10:44:06.348Z,6.10
2022-10-12T10:47:14.659Z,5.80
2022-10-12T10:50:31.897Z,3.80
2022-10-12T10:53:49.832Z,2.90
2022-10-12T10:57:03.383Z,2.50
2022-10-12T11:03:52.386Z,2.70
2022-10-12T11:07:03.027Z,3.00
2022-10-12T11:10:22.015Z,3.40
2022-10-12T11:13:34.005Z,3.00
2022-10-12T11:16:45.097Z,2.70
2022-10-12T11:19:57.064Z,2.50
2022-10-12T11:23:10.810Z,3.10
2022-10-12T11:26:24.154Z,2.70
2022-10-12T11:29:30.823Z,2.60
2022-10-12T11:32:41.890Z,2.60
2022-10-12T11:35:49.015Z,2.70
2022-10-12T11:39:05.895Z,2.30
2022-10-12T11:42:22.147Z,2.80
2022-10-12T11:45:31.838Z,2.60
2022-10-12T11:48:43.431Z,2.50
2022-10-12T11:51:52.627Z,2.40
2022-10-12T11:55:09.508Z,2.40
2022-10-12T11:58:31.553Z,2.30
2022-10-12T12:02:04.791Z,3.00
2022-10-12T12:05:16.685Z,2.80
2022-10-12T12:09:19.212Z,3.10
2022-10-12T12:12:27.696Z,2.70
2022-10-12T12:15:34.184Z,2.90
2022-10-12T12:19:13.327Z,3.40
2022-10-12T12:22:49.156Z,2.80
2022-10-12T12:26:16.803Z,3.00
2022-10-12T12:29:30.033Z,3.00
2022-10-12T12:32:49.557Z,2.80
2022-10-12T12:35:58.552Z,3.00
2022-10-12T12:39:06.090Z,3.20
2022-10-12T12:42:12.761Z,3.00
2022-10-12T12:45:54.476Z,2.80
2022-10-12T12:49:26.839Z,3.20
2022-10-12T12:52:35.361Z,2.90
2022-10-12T12:56:04.561Z,2.80
2022-10-12T12:59:35.108Z,2.90
2022-10-12T13:03:04.650Z,2.90
2022-10-12T13:06:40.263Z,3.10
2022-10-12T13:10:08.951Z,3.40
2022-10-12T13:13:44.308Z,3.30
2022-10-12T13:20:28.190Z,3.60
2022-10-12T13:23:35.053Z,4.10
2022-10-12T13:26:42.324Z,4.10
2022-10-12T13:29:55.014Z,4.10
2022-10-12T13:33:07.778Z,4.40
2022-10-12T13:36:19.511Z,6.10
2022-10-12T13:39:25.739Z,7.80
2022-10-12T13:42:36.038Z,4.50
2022-10-12T13:45:48.198Z,4.70
2022-10-12T13:48:59.795Z,5.30
2022-10-12T13:52:31.821Z,4.00
2022-10-12T13:55:38.716Z,4.10
2022-10-12T13:58:45.113Z,3.80
2022-10-12T14:02:00.902Z,5.30
2022-10-12T14:08:20.729Z,6.40
2022-10-12T14:11:27.915Z,6.80
2022-10-12T14:14:37.722Z,4.90
2022-10-12T14:17:47.798Z,3.70
2022-10-12T14:21:05.735Z,3.60
2022-10-12T14:24:12.741Z,4.20
2022-10-12T14:27:26.116Z,4.30
2022-10-12T14:30:34.435Z,4.60
2022-10-12T14:33:40.582Z,4.60
2022-10-12T14:39:59.519Z,5.00
2022-10-12T14:43:09.582Z,4.20
2022-10-12T14:46:15.716Z,3.60
2022-10-12T14:52:35.160Z,4.10
2022-10-12T14:55:42.700Z,4.40
2022-10-12T14:58:49.607Z,4.40
2022-10-12T15:01:55.841Z,4.50
2022-10-12T15:05:02.537Z,3.70
2022-10-12T15:08:09.387Z,3.40
2022-10-12T15:11:16.963Z,3.80
2022-10-12T15:14:23.044Z,4.70
2022-10-12T15:20:34.251Z,8.20
2022-10-12T15:23:40.498Z,12.90
2022-10-12T15:26:46.833Z,11.10
2022-10-12T15:29:53.393Z,7.50
2022-10-12T15:32:59.642Z,8.50
2022-10-12T15:36:05.754Z,9.50
2022-10-12T15:42:16.418Z,11.40
2022-10-12T15:48:29.189Z,10.10
2022-10-12T15:51:39.202Z,10.50
2022-10-12T15:54:48.771Z,9.50
2022-10-12T15:57:56.215Z,9.90
2022-10-12T16:01:02.386Z,11.80
2022-10-12T16:07:15.876Z,12.60
2022-10-12T16:10:24.492Z,14.90
2022-10-12T16:13:30.574Z,15.10
2022-10-12T16:16:36.706Z,18.50
2022-10-12T16:19:42.856Z,17.50
2022-10-12T16:22:51.147Z,16.20
2022-10-12T16:25:57.655Z,13.20
2022-10-12T16:29:03.803Z,9.00
2022-10-12T16:35:15.328Z,6.70
2022-10-12T16:38:21.646Z,6.40
2022-10-12T16:41:30.412Z,7.80
2022-10-12T16:44:40.073Z,8.80
2022-10-12T16:50:50.879Z,8.40
2022-10-12T16:57:01.923Z,8.60
2022-10-12T17:00:10.681Z,7.10
2022-10-12T17:03:16.958Z,6.50
2022-10-12T17:06:23.108Z,6.80
2022-10-12T17:12:35.462Z,6.70
2022-10-12T17:15:44.071Z,7.70
2022-10-12T17:18:50.206Z,7.50
2022-10-12T17:21:59.665Z,9.00
2022-10-12T17:25:06.385Z,9.20
2022-10-12T17:28:12.467Z,8.50
2022-10-12T17:31:18.886Z,8.90
2022-10-12T17:34:26.676Z,9.60
2022-10-12T17:37:32.837Z,9.70
2022-10-12T17:43:46.475Z,11.40
2022-10-12T17:46:52.680Z,12.30
2022-10-12T17:53:03.317Z,12.40
2022-10-12T17:56:14.043Z,14.00
2022-10-12T17:59:21.215Z,12.50
2022-10-12T18:02:27.577Z,13.10
2022-10-12T18:05:34.867Z,13.50
2022-10-12T18:08:41.255Z,13.40
2022-10-12T18:11:47.474Z,13.60
2022-10-12T18:17:58.088Z,14.60
2022-10-12T18:21:08.246Z,15.00
2022-10-12T18:24:17.662Z,15.20
2022-10-12T18:27:23.926Z,16.00
2022-10-12T18:30:30.054Z,15.60
2022-10-12T18:33:36.721Z,15.00
2022-10-12T18:36:42.999Z,16.00
2022-10-12T18:42:53.879Z,15.90
2022-10-12T18:45:59.914Z,16.40
2022-10-12T18:49:08.534Z,14.80
2022-10-12T18:52:14.557Z,14.00
2022-10-12T18:55:20.861Z,15.90
2022-10-12T19:01:33.187Z,17.10
2022-10-12T19:04:39.349Z,14.80
2022-10-12T19:07:45.467Z,16.30
2022-10-12T19:10:51.566Z,22.80
2022-10-12T19:14:00.211Z,15.40
2022-10-12T19:17:06.322Z,15.70
2022-10-12T19:20:13.792Z,16.10
2022-10-12T19:23:19.901Z,15.50
2022-10-12T19:26:28.545Z,16.60
2022-10-12T19:29:34.678Z,15.40
2022-10-12T19:32:41.484Z,29.80
2022-10-12T19:35:47.619Z,15.40
2022-10-12T19:38:55.972Z,15.80
2022-10-12T19:42:02.117Z,19.70
2022-10-12T19:45:09.742Z,19.10
2022-10-12T19:48:15.971Z,21.50
2022-10-12T19:51:24.001Z,18.40
2022-10-12T19:54:34.076Z,15.10
2022-10-12T19:57:43.202Z,15.60
2022-10-12T20:00:49.489Z,16.20
2022-10-12T20:07:00.142Z,16.80
2022-10-12T20:10:07.465Z,16.90
2022-10-12T20:13:13.594Z,15.60
2022-10-12T20:16:21.194Z,42.80
2022-10-12T20:19:27.503Z,69.10
2022-10-12T20:25:43.177Z,29.00
2022-10-12T20:28:50.190Z,21.70
2022-10-12T20:31:56.391Z,16.50
2022-10-12T20:35:02.444Z,16.30
2022-10-12T20:38:08.507Z,18.70
2022-10-12T20:41:17.292Z,17.40
2022-10-12T20:44:23.607Z,16.60
2022-10-12T20:50:35.364Z,23.70
2022-10-12T20:53:42.171Z,19.10
2022-10-12T20:56:52.086Z,19.90
2022-10-12T20:59:58.306Z,20.00
2022-10-12T21:03:04.461Z,21.70
2022-10-12T21:06:12.913Z,19.20
2022-10-12T21:09:18.895Z,23.40
2022-10-12T21:12:25.095Z,19.00
2022-10-12T21:15:31.311Z,19.00
2022-10-12T21:18:38.440Z,18.60
2022-10-12T21:21:46.720Z,17.30
2022-10-12T21:24:53.379Z,16.10
2022-10-12T21:27:59.628Z,15.80
2022-10-12T21:31:05.936Z,16.40
2022-10-12T21:37:17.638Z,16.50
2022-10-12T21:40:24.475Z,16.30
2022-10-12T21:43:30.586Z,16.20
2022-10-12T21:46:37.584Z,15.40
2022-10-12T21:49:43.698Z,16.20
2022-10-12T21:52:50.230Z,16.80
2022-10-12T21:55:56.676Z,15.70
2022-10-12T22:02:08.044Z,16.80
2022-10-12T22:05:14.108Z,16.70
2022-10-12T22:08:20.229Z,17.10
2022-10-12T22:11:27.379Z,15.70
2022-10-12T22:14:33.611Z,16.00
2022-10-12T22:17:39.762Z,16.00
2022-10-12T22:20:45.776Z,15.10
2022-10-12T22:23:51.896Z,15.90
2022-10-12T22:26:58.001Z,15.60
2022-10-12T22:30:04.610Z,16.40
2022-10-12T22:33:10.729Z,15.90
2022-10-12T22:36:18.019Z,15.70
2022-10-12T22:39:24.235Z,15.00
2022-10-12T22:42:30.380Z,15.40
2022-10-12T22:45:36.461Z,15.80
2022-10-12T22:48:42.984Z,15.30
2022-10-12T22:51:49.208Z,15.90
2022-10-12T22:54:55.212Z,16.40
2022-10-12T22:58:01.328Z,17.00
2022-10-12T23:01:09.165Z,16.20
2022-10-12T23:04:15.506Z,16.10
2022-10-12T23:10:26.655Z,16.30
2022-10-12T23:13:32.847Z,15.70
2022-10-12T23:16:38.923Z,16.20
2022-10-12T23:19:45.082Z,15.70
2022-10-12T23:22:51.164Z,15.70
2022-10-12T23:26:03.499Z,15.70
2022-10-12T23:29:09.642Z,18.40
2022-10-12T23:32:16.683Z,16.90
2022-10-12T23:35:22.995Z,14.50
2022-10-12T23:38:31.768Z,16.20
2022-10-12T23:41:37.844Z,16.10
2022-10-12T23:44:43.969Z,16.70
2022-10-12T23:47:50.071Z,15.30
2022-10-12T23:50:56.703Z,16.00
2022-10-12T23:54:03.142Z,14.30
